Time;durP1;ratioP1;P1;durP2;ratioP2;P2;SDS_P1;SDS_P2;PMS_P1;PMS_P2;Temp;Humidity;BMP_temperature;BMP_pressure;BME280_temperature;BME280_humidity;BME280_pressure;Samples;Min_cycle;Max_cycle;Signal;HPM_P1;HPM_P2
2024/01/30 06:18:20;;;;;;;;;19.00;17.33;;;;;;;;4951842;28;8910;-69
2024/01/30 06:20:45;;;;;;;;;20.33;19.00;;;;;;;;4955303;28;8836;-69
2024/01/30 06:23:12;;;;;;;;;21.33;18.00;;;;;;;;4954791;28;8784;-68
2024/01/30 06:25:38;;;;;;;;;28.67;19.67;;;;;;;;4955137;28;8815;-69
2024/01/30 06:28:03;;;;;;;;;25.00;21.67;;;;;;;;4955017;28;8816;-69
2024/01/30 06:30:29;;;;;;;;;37.00;31.25;;;;;;;;4955110;28;8792;-69
2024/01/30 06:32:54;;;;;;;;;27.67;22.00;;;;;;;;4954703;28;8800;-69
2024/01/30 06:35:19;;;;;;;;;24.00;19.00;;;;;;;;4953616;28;8954;-70
2024/01/30 06:37:45;;;;;;;;;25.00;21.33;;;;;;;;4954631;28;8834;-71
2024/01/30 06:40:10;;;;;;;;;21.00;18.33;;;;;;;;4954788;28;8854;-70
2024/01/30 06:42:35;;;;;;;;;25.00;22.67;;;;;;;;4955076;28;8784;-69
2024/01/30 06:45:01;;;;;;;;;26.25;25.50;;;;;;;;4954815;28;8804;-69
2024/01/30 06:47:26;;;;;;;;;25.00;21.00;;;;;;;;4951449;28;8848;-69
2024/01/30 06:49:51;;;;;;;;;33.00;24.75;;;;;;;;4954573;28;8824;-67
2024/01/30 06:52:17;;;;;;;;;33.25;24.50;;;;;;;;4954553;28;8834;-68
2024/01/30 06:54:42;;;;;;;;;25.67;23.33;;;;;;;;4954545;28;8850;-70
2024/01/30 06:57:11;;;;;;;;;24.00;21.00;;;;;;;;4969116;28;8800;-68
2024/01/30 06:59:36;;;;;;;;;36.50;32.00;;;;;;;;4954451;28;8836;-69
2024/01/30 07:02:02;;;;;;;;;32.50;28.00;;;;;;;;4954350;28;8831;-70
2024/01/30 07:04:27;;;;;;;;;39.00;33.00;;;;;;;;4954196;28;8804;-71
2024/01/30 07:06:53;;;;;;;;;33.00;30.25;;;;;;;;4954275;28;8796;-69
2024/01/30 07:09:18;;;;;;;;;32.75;29.50;;;;;;;;4953159;28;8827;-69
2024/01/30 07:11:43;;;;;;;;;32.50;28.50;;;;;;;;4952217;28;8812;-69
2024/01/30 07:14:09;;;;;;;;;31.50;30.50;;;;;;;;4952512;28;8815;-70
2024/01/30 07:16:34;;;;;;;;;29.33;28.67;;;;;;;;4951178;28;8874;-69
2024/01/30 07:18:59;;;;;;;;;38.00;33.00;;;;;;;;4952650;28;8808;-69
2024/01/30 07:21:28;;;;;;;;;32.00;29.50;;;;;;;;4952675;28;9696;-69
2024/01/30 07:23:55;;;;;;;;;32.00;28.00;;;;;;;;4953394;28;8862;-70
2024/01/30 07:26:20;;;;;;;;;36.25;30.00;;;;;;;;4954078;28;8796;-70
2024/01/30 07:28:46;;;;;;;;;33.75;31.00;;;;;;;;4954101;28;8811;-70
2024/01/30 07:31:11;;;;;;;;;32.00;28.50;;;;;;;;4952684;28;9570;-69
2024/01/30 07:33:37;;;;;;;;;31.75;26.50;;;;;;;;4953098;28;8922;-70
2024/01/30 07:36:02;;;;;;;;;25.75;19.50;;;;;;;;4953731;28;8938;-70
2024/01/30 07:38:27;;;;;;;;;28.00;27.00;;;;;;;;4953911;28;8824;-70
2024/01/30 07:40:52;;;;;;;;;33.67;31.00;;;;;;;;4953553;28;8856;-70
2024/01/30 07:43:19;;;;;;;;;24.33;22.67;;;;;;;;4953837;28;8835;-70
2024/01/30 07:45:44;;;;;;;;;31.33;29.33;;;;;;;;4953956;28;9592;-70
2024/01/30 07:48:10;;;;;;;;;25.00;24.67;;;;;;;;4953476;28;8831;-71
2024/01/30 07:50:35;;;;;;;;;33.67;33.33;;;;;;;;4953704;28;8804;-71
2024/01/30 07:53:01;;;;;;;;;37.67;33.67;;;;;;;;4953501;28;8804;-71
2024/01/30 07:55:30;;;;;;;;;37.00;30.33;;;;;;;;4953416;28;8927;-71
2024/01/30 07:57:56;;;;;;;;;39.67;37.67;;;;;;;;4953414;28;8808;-72
2024/01/30 08:00:21;;;;;;;;;35.67;33.00;;;;;;;;4953402;28;8938;-70
2024/01/30 08:02:55;;;;;;;;;41.00;34.00;;;;;;;;4953194;28;8826;-71
2024/01/30 08:05:22;;;;;;;;;32.00;29.33;;;;;;;;4953372;28;8793;-70
2024/01/30 08:07:47;;;;;;;;;39.67;35.33;;;;;;;;4953051;28;8823;-71
2024/01/30 08:10:13;;;;;;;;;40.67;36.33;;;;;;;;4953095;28;11702;-71
2024/01/30 08:12:38;;;;;;;;;36.33;34.00;;;;;;;;4953182;28;8830;-70
2024/01/30 08:15:04;;;;;;;;;38.67;35.00;;;;;;;;4951863;28;8903;-71
2024/01/30 08:17:29;;;;;;;;;33.67;29.33;;;;;;;;4952841;28;9688;-71
2024/01/30 08:19:55;;;;;;;;;38.00;33.00;;;;;;;;4952911;28;9577;-71
2024/01/30 08:22:20;;;;;;;;;35.00;30.67;;;;;;;;4967731;28;9609;-71
2024/01/30 08:24:45;;;;;;;;;37.67;34.00;;;;;;;;4953024;28;8842;-70
2024/01/30 08:27:12;;;;;;;;;31.33;29.67;;;;;;;;4952954;28;8882;-70
2024/01/30 08:29:37;;;;;;;;;39.33;33.67;;;;;;;;4952917;28;8812;-70
2024/01/30 08:32:03;;;;;;;;;42.67;39.67;;;;;;;;4953065;28;8829;-69
2024/01/30 08:34:29;;;;;;;;;28.00;25.00;;;;;;;;4952758;28;8826;-70
2024/01/30 08:36:54;;;;;;;;;37.00;31.33;;;;;;;;4967617;28;8827;-70
2024/01/30 08:39:19;;;;;;;;;39.33;39.00;;;;;;;;4952960;28;8800;-71
2024/01/30 08:41:45;;;;;;;;;40.00;36.33;;;;;;;;4952804;28;8839;-68
2024/01/30 08:44:11;;;;;;;;;43.33;41.67;;;;;;;;4953004;28;8808;-68
2024/01/30 08:46:36;;;;;;;;;39.67;39.33;;;;;;;;4952648;28;8823;-69
2024/01/30 08:49:02;;;;;;;;;39.33;39.33;;;;;;;;4952640;28;8820;-70
2024/01/30 08:51:27;;;;;;;;;46.67;45.00;;;;;;;;4952730;28;8796;-71
2024/01/30 08:53:53;;;;;;;;;40.33;39.00;;;;;;;;4952675;28;8834;-69
2024/01/30 08:56:19;;;;;;;;;39.33;37.00;;;;;;;;4952670;28;8792;-69
2024/01/30 08:58:44;;;;;;;;;46.33;38.67;;;;;;;;4952839;28;8919;-69
2024/01/30 09:01:09;;;;;;;;;45.33;40.67;;;;;;;;4952550;28;8827;-69
2024/01/30 09:03:35;;;;;;;;;36.67;34.00;;;;;;;;4952572;28;9641;-69
2024/01/30 09:06:00;;;;;;;;;45.00;41.67;;;;;;;;4952642;28;8810;-70
2024/01/30 09:08:25;;;;;;;;;44.67;40.67;;;;;;;;4952641;28;8805;-69
2024/01/30 09:10:50;;;;;;;;;49.00;44.33;;;;;;;;4952823;28;8927;-69
2024/01/30 09:13:16;;;;;;;;;48.67;43.00;;;;;;;;4952582;28;8796;-69
2024/01/30 09:15:42;;;;;;;;;48.67;42.33;;;;;;;;4952715;28;8788;-71
2024/01/30 09:18:07;;;;;;;;;45.00;38.67;;;;;;;;4997079;22;8912;-77
2024/01/30 09:20:32;;;;;;;;;44.67;42.00;;;;;;;;4951743;29;8840;-77
2024/01/30 09:22:57;;;;;;;;;25.67;21.67;;;;;;;;4948643;29;8882;-73
2024/01/30 09:25:23;;;;;;;;;51.33;44.33;;;;;;;;4951682;28;8851;-74
2024/01/30 09:27:48;;;;;;;;;54.75;45.00;;;;;;;;4951624;28;8812;-76
2024/01/30 09:30:14;;;;;;;;;58.00;50.75;;;;;;;;4951701;28;8816;-76
2024/01/30 09:32:40;;;;;;;;;52.00;45.00;;;;;;;;4951533;28;8968;-76
2024/01/30 09:35:05;;;;;;;;;60.75;49.75;;;;;;;;4951559;28;8974;-75
2024/01/30 09:37:31;;;;;;;;;61.00;48.25;;;;;;;;4951126;28;8874;-75
2024/01/30 09:39:56;;;;;;;;;50.00;44.33;;;;;;;;4951608;28;8824;-74
2024/01/30 09:42:27;;;;;;;;;55.00;44.00;;;;;;;;4951418;28;8858;-74
2024/01/30 09:44:53;;;;;;;;;60.67;48.67;;;;;;;;4951518;28;8820;-75
2024/01/30 09:47:18;;;;;;;;;61.00;51.67;;;;;;;;4951389;28;8821;-76
2024/01/30 09:49:44;;;;;;;;;56.33;46.00;;;;;;;;4951291;28;8808;-75
2024/01/30 09:52:09;;;;;;;;;61.00;48.00;;;;;;;;4951084;29;8947;-75
2024/01/30 09:54:35;;;;;;;;;62.00;50.00;;;;;;;;4966035;28;9530;-75
2024/01/30 09:57:00;;;;;;;;;55.67;48.00;;;;;;;;4951752;28;8800;-75
2024/01/30 09:59:26;;;;;;;;;64.00;50.00;;;;;;;;4954672;28;9607;-75
2024/01/30 10:01:51;;;;;;;;;62.67;51.00;;;;;;;;4954651;28;8884;-74
2024/01/30 10:04:17;;;;;;;;;64.00;51.67;;;;;;;;4954549;28;8816;-75
2024/01/30 10:06:42;;;;;;;;;63.00;51.00;;;;;;;;4954494;28;8814;-75
2024/01/30 10:09:09;;;;;;;;;59.00;49.00;;;;;;;;4954593;28;9721;-75
2024/01/30 10:11:34;;;;;;;;;59.33;49.33;;;;;;;;4954524;28;8796;-75
2024/01/30 10:14:00;;;;;;;;;63.00;53.33;;;;;;;;4954646;28;8814;-76
2024/01/30 10:16:25;;;;;;;;;64.33;51.33;;;;;;;;4954396;28;8791;-76
2024/01/30 10:18:50;;;;;;;;;60.67;51.33;;;;;;;;4953819;28;8800;-76
2024/01/30 10:21:16;;;;;;;;;66.00;55.67;;;;;;;;4954451;28;8831;-76
2024/01/30 10:23:43;;;;;;;;;61.00;48.00;;;;;;;;4954138;28;8812;-77
2024/01/30 10:26:08;;;;;;;;;56.67;47.33;;;;;;;;4954284;28;8791;-76
2024/01/30 10:28:33;;;;;;;;;59.67;51.67;;;;;;;;4969316;28;9542;-79
2024/01/30 10:31:03;;;;;;;;;61.00;49.00;;;;;;;;4969767;28;8962;-74
2024/01/30 10:33:29;;;;;;;;;62.33;52.67;;;;;;;;4954527;28;8854;-80
2024/01/30 10:36:02;;;;;;;;;65.67;53.33;;;;;;;;4955055;28;8820;-75
2024/01/30 10:38:30;;;;;;;;;64.00;49.67;;;;;;;;4953967;28;8816;-74
2024/01/30 10:41:02;;;;;;;;;61.67;49.00;;;;;;;;4954032;28;8839;-77
2024/01/30 10:43:32;;;;;;;;;64.67;52.67;;;;;;;;4954168;28;8788;-80
2024/01/30 10:45:59;;;;;;;;;61.67;50.33;;;;;;;;4968754;28;8812;-79
2024/01/30 10:48:29;;;;;;;;;63.67;51.33;;;;;;;;4968680;28;8820;-79
2024/01/30 10:50:55;;;;;;;;;59.67;47.67;;;;;;;;4953725;28;8792;-80
2024/01/30 10:53:21;;;;;;;;;61.33;52.00;;;;;;;;4953547;28;8803;-83
2024/01/30 10:55:47;;;;;;;;;52.33;46.00;;;;;;;;4953803;28;8812;-82
2024/01/30 10:58:14;;;;;;;;;61.67;50.00;;;;;;;;4954386;28;8811;-79
2024/01/30 11:00:40;;;;;;;;;65.67;51.00;;;;;;;;4953722;28;8840;-84
2024/01/30 11:03:05;;;;;;;;;61.00;52.00;;;;;;;;4953820;28;9670;-77
2024/01/30 11:05:30;;;;;;;;;63.67;51.00;;;;;;;;4953508;28;8942;-78
2024/01/30 11:07:56;;;;;;;;;61.67;51.00;;;;;;;;4968342;28;8812;-75
2024/01/30 11:10:24;;;;;;;;;64.33;52.33;;;;;;;;4951952;28;8875;-74
2024/01/30 11:12:51;;;;;;;;;61.00;48.67;;;;;;;;4951620;28;8804;-77
2024/01/30 11:15:17;;;;;;;;;63.33;49.00;;;;;;;;4951593;28;8933;-78
2024/01/30 11:17:48;;;;;;;;;56.33;44.33;;;;;;;;4988127;22;8893;-69
2024/01/30 11:20:19;;;;;;;;;56.67;48.00;;;;;;;;4971250;28;8837;-69
2024/01/30 11:22:45;;;;;;;;;55.33;44.33;;;;;;;;4971464;28;8833;-69
2024/01/30 11:25:17;;;;;;;;;55.75;48.25;;;;;;;;4971633;28;11574;-69
2024/01/30 11:27:43;;;;;;;;;56.75;48.00;;;;;;;;4973460;28;8932;-70
2024/01/30 11:30:09;;;;;;;;;60.00;46.75;;;;;;;;4973138;28;11691;-69
2024/01/30 11:32:34;;;;;;;;;54.25;44.50;;;;;;;;4973145;28;8859;-69
2024/01/30 11:34:59;;;;;;;;;47.50;39.50;;;;;;;;4972896;28;9460;-69
2024/01/30 11:37:26;;;;;;;;;52.00;42.00;;;;;;;;4972811;28;8805;-70
2024/01/30 11:39:53;;;;;;;;;48.00;41.50;;;;;;;;4972928;28;8931;-71
2024/01/30 11:42:19;;;;;;;;;45.75;38.25;;;;;;;;4972827;28;11566;-70
2024/01/30 11:44:47;;;;;;;;;47.50;39.75;;;;;;;;4955532;28;11565;-70
2024/01/30 11:47:12;;;;;;;;;51.50;42.25;;;;;;;;4972901;28;8828;-69
2024/01/30 11:49:38;;;;;;;;;47.50;39.00;;;;;;;;4972552;28;11569;-69
2024/01/30 11:52:04;;;;;;;;;45.75;38.25;;;;;;;;4972947;28;9507;-69
2024/01/30 11:54:29;;;;;;;;;51.50;41.00;;;;;;;;4972572;28;11654;-68
2024/01/30 11:56:54;;;;;;;;;45.00;38.50;;;;;;;;4972586;28;8801;-68
2024/01/30 11:59:20;;;;;;;;;45.75;40.50;;;;;;;;4970120;28;8828;-68
2024/01/30 12:01:45;;;;;;;;;45.25;39.00;;;;;;;;4972125;28;8829;-68
2024/01/30 12:04:11;;;;;;;;;43.75;38.50;;;;;;;;4972395;28;8821;-67
2024/01/30 12:06:36;;;;;;;;;44.25;38.50;;;;;;;;4972507;28;9579;-67
2024/01/30 12:09:07;;;;;;;;;46.00;41.50;;;;;;;;4972395;28;8837;-67
2024/01/30 12:11:33;;;;;;;;;41.75;39.00;;;;;;;;4972367;28;8948;-68
2024/01/30 12:13:58;;;;;;;;;44.00;38.00;;;;;;;;4986882;28;11716;-67
2024/01/30 12:16:24;;;;;;;;;45.25;38.75;;;;;;;;4972562;28;9542;-67
2024/01/30 12:18:59;;;;;;;;;53.25;43.00;;;;;;;;4986987;28;8940;-67
2024/01/30 12:21:24;;;;;;;;;47.50;39.75;;;;;;;;4971789;28;8929;-68
2024/01/30 12:23:50;;;;;;;;;45.25;40.00;;;;;;;;4971954;28;11587;-69
2024/01/30 12:26:15;;;;;;;;;52.00;43.00;;;;;;;;4971955;28;8948;-68
2024/01/30 12:28:50;;;;;;;;;47.75;40.25;;;;;;;;4971873;28;8836;-68
2024/01/30 12:31:15;;;;;;;;;45.50;39.00;;;;;;;;4972019;28;9531;-71
2024/01/30 12:33:41;;;;;;;;;46.67;39.33;;;;;;;;4971870;28;11596;-68
2024/01/30 12:36:06;;;;;;;;;46.00;41.33;;;;;;;;4972083;28;8798;-69
2024/01/30 12:38:32;;;;;;;;;45.00;39.67;;;;;;;;4971873;28;8805;-71
2024/01/30 12:40:58;;;;;;;;;53.25;42.25;;;;;;;;4971819;28;8825;-69
2024/01/30 12:43:26;;;;;;;;;54.00;44.00;;;;;;;;4971796;28;8806;-69
2024/01/30 12:45:54;;;;;;;;;49.33;43.00;;;;;;;;4970467;28;8832;-70
2024/01/30 12:48:20;;;;;;;;;54.00;44.00;;;;;;;;4971648;28;11576;-70
2024/01/30 12:50:45;;;;;;;;;53.67;42.67;;;;;;;;4971788;28;11613;-69
2024/01/30 12:53:12;;;;;;;;;47.00;41.33;;;;;;;;4971808;28;8813;-69
2024/01/30 12:55:37;;;;;;;;;56.00;45.00;;;;;;;;4971842;28;8802;-70
2024/01/30 12:58:03;;;;;;;;;55.33;45.00;;;;;;;;4971626;28;11668;-69
2024/01/30 13:00:28;;;;;;;;;54.33;43.00;;;;;;;;4971458;28;8911;-69
2024/01/30 13:02:53;;;;;;;;;52.67;44.67;;;;;;;;4972011;28;8789;-71
2024/01/30 13:05:19;;;;;;;;;55.33;44.67;;;;;;;;4971455;28;9606;-71
2024/01/30 13:07:44;;;;;;;;;50.67;43.00;;;;;;;;4971591;28;8806;-70
2024/01/30 13:10:10;;;;;;;;;58.33;45.67;;;;;;;;4971756;28;8813;-71
2024/01/30 13:12:36;;;;;;;;;48.33;42.00;;;;;;;;4971623;28;8789;-70
2024/01/30 13:15:03;;;;;;;;;47.00;43.00;;;;;;;;4971363;28;8813;-69
2024/01/30 13:17:29;;;;;;;;;56.67;48.00;;;;;;;;4986834;28;11602;-69
2024/01/30 13:19:54;;;;;;;;;51.33;44.00;;;;;;;;4970200;28;8903;-69
2024/01/30 13:22:21;;;;;;;;;52.33;43.33;;;;;;;;4971443;28;8815;-69
2024/01/30 13:24:47;;;;;;;;;55.00;45.00;;;;;;;;4971538;28;8786;-69
2024/01/30 13:27:12;;;;;;;;;52.00;43.00;;;;;;;;4971398;28;8895;-70
2024/01/30 13:29:37;;;;;;;;;51.00;44.00;;;;;;;;4971360;28;8801;-69
2024/01/30 13:32:03;;;;;;;;;54.67;43.67;;;;;;;;4972124;28;9601;-69
2024/01/30 13:34:28;;;;;;;;;50.67;39.00;;;;;;;;4975184;28;8801;-69
2024/01/30 13:36:53;;;;;;;;;50.00;43.67;;;;;;;;4975170;28;8789;-68
2024/01/30 13:39:19;;;;;;;;;51.33;43.67;;;;;;;;4975134;28;8781;-69
2024/01/30 13:41:44;;;;;;;;;51.25;41.00;;;;;;;;4973933;28;8867;-69
2024/01/30 13:44:09;;;;;;;;;50.33;41.00;;;;;;;;4989507;28;8821;-69
2024/01/30 13:46:34;;;;;;;;;47.50;41.50;;;;;;;;4973577;28;8801;-69
2024/01/30 13:49:00;;;;;;;;;52.00;40.25;;;;;;;;4973371;28;8829;-70
2024/01/30 13:51:26;;;;;;;;;36.50;30.50;;;;;;;;4974453;28;8829;-70
2024/01/30 13:53:51;;;;;;;;;51.00;42.33;;;;;;;;4973602;28;8836;-69
2024/01/30 13:56:16;;;;;;;;;48.00;41.75;;;;;;;;4974778;28;8809;-69
2024/01/30 13:58:41;;;;;;;;;50.50;41.00;;;;;;;;4974766;28;8785;-69
2024/01/30 14:01:07;;;;;;;;;52.25;42.50;;;;;;;;4974682;28;8881;-69
2024/01/30 14:03:32;;;;;;;;;46.75;41.25;;;;;;;;4974564;28;8793;-70
2024/01/30 14:05:58;;;;;;;;;53.33;44.00;;;;;;;;4973346;28;8813;-70
2024/01/30 14:08:26;;;;;;;;;48.25;40.50;;;;;;;;4974520;28;8923;-69
2024/01/30 14:10:51;;;;;;;;;36.25;34.50;;;;;;;;4974641;28;8823;-69
2024/01/30 14:13:17;;;;;;;;;46.75;41.75;;;;;;;;4974451;28;11682;-70
2024/01/30 14:15:42;;;;;;;;;41.00;38.50;;;;;;;;4974541;28;8797;-69
2024/01/30 14:18:08;;;;;;;;;40.50;38.00;;;;;;;;4974835;28;8825;-69
2024/01/30 14:20:34;;;;;;;;;34.25;29.75;;;;;;;;4974003;28;8875;-69
2024/01/30 14:22:59;;;;;;;;;44.75;40.50;;;;;;;;4989078;28;12346;-69
2024/01/30 14:25:24;;;;;;;;;46.25;38.50;;;;;;;;4974285;28;8892;-69
2024/01/30 14:27:51;;;;;;;;;39.00;35.00;;;;;;;;4974316;28;8789;-70
2024/01/30 14:30:17;;;;;;;;;41.75;37.00;;;;;;;;4974280;28;8813;-70
2024/01/30 14:32:44;;;;;;;;;43.50;37.00;;;;;;;;4974186;28;11592;-69
2024/01/30 14:35:10;;;;;;;;;39.25;33.50;;;;;;;;4973945;28;8793;-69
2024/01/30 14:37:35;;;;;;;;;43.00;38.50;;;;;;;;4972737;28;11570;-70
2024/01/30 14:40:00;;;;;;;;;38.75;37.75;;;;;;;;4974188;28;8849;-69
2024/01/30 14:42:27;;;;;;;;;33.50;30.75;;;;;;;;4974060;28;8810;-69
2024/01/30 14:44:52;;;;;;;;;40.50;33.75;;;;;;;;4973660;28;8805;-69
2024/01/30 14:47:17;;;;;;;;;33.25;33.00;;;;;;;;4973721;28;11656;-69
2024/01/30 14:49:43;;;;;;;;;37.00;33.75;;;;;;;;4973806;28;8793;-70
2024/01/30 14:52:10;;;;;;;;;35.75;35.25;;;;;;;;4988687;28;8839;-70
2024/01/30 14:54:36;;;;;;;;;31.75;30.75;;;;;;;;4973874;28;8793;-70
2024/01/30 14:57:01;;;;;;;;;33.75;30.50;;;;;;;;4973600;28;11665;-69
2024/01/30 14:59:26;;;;;;;;;33.50;29.75;;;;;;;;4973757;28;8874;-69
2024/01/30 15:01:52;;;;;;;;;24.50;23.00;;;;;;;;4973677;28;9559;-70
2024/01/30 15:04:17;;;;;;;;;29.75;27.50;;;;;;;;4988384;28;8821;-70
2024/01/30 15:06:45;;;;;;;;;29.75;29.75;;;;;;;;4973520;28;8801;-70
2024/01/30 15:09:14;;;;;;;;;34.50;28.75;;;;;;;;4973608;28;8801;-70
2024/01/30 15:11:40;;;;;;;;;25.00;23.75;;;;;;;;4973402;28;11590;-70
2024/01/30 15:14:05;;;;;;;;;29.25;27.00;;;;;;;;4973350;28;11548;-70
2024/01/30 15:16:34;;;;;;;;;28.25;24.75;;;;;;;;4973920;28;8805;-70
2024/01/30 15:18:59;;;;;;;;;16.00;12.75;;;;;;;;4971846;28;8856;-70
2024/01/30 17:45:38;;;;;;;;;56.67;43.00;;;;;;;;5146037;27;13399;-70
2024/01/30 17:48:04;;;;;;;;;48.67;43.67;;;;;;;;5144493;27;8787;-71
2024/01/30 17:50:29;;;;;;;;;54.33;43.00;;;;;;;;5147458;27;9021;-69
2024/01/30 17:52:54;;;;;;;;;47.33;42.00;;;;;;;;5147502;27;8786;-70
2024/01/30 17:55:20;;;;;;;;;43.33;40.33;;;;;;;;5147458;27;8918;-69
2024/01/30 17:57:45;;;;;;;;;48.67;40.00;;;;;;;;5143172;27;8785;-69
2024/01/30 18:00:11;;;;;;;;;41.00;37.33;;;;;;;;5147083;27;8795;-69
2024/01/30 18:02:36;;;;;;;;;46.00;41.00;;;;;;;;5148348;27;8785;-68
2024/01/30 18:05:02;;;;;;;;;52.33;41.00;;;;;;;;5149080;27;8806;-72
2024/01/30 18:07:27;;;;;;;;;53.67;46.00;;;;;;;;5145328;27;8787;-69
2024/01/30 18:09:52;;;;;;;;;58.33;47.67;;;;;;;;5149001;27;8781;-72
2024/01/30 18:12:17;;;;;;;;;58.33;47.67;;;;;;;;5149169;27;8794;-71
2024/01/30 18:14:44;;;;;;;;;55.33;47.00;;;;;;;;5149147;27;8906;-73
2024/01/30 18:17:09;;;;;;;;;59.67;46.67;;;;;;;;5151280;22;9497;-71
2024/01/30 18:19:34;;;;;;;;;60.33;50.00;;;;;;;;5057901;28;8825;-71
2024/01/30 18:22:00;;;;;;;;;59.00;46.67;;;;;;;;5053285;28;8808;-74
2024/01/30 18:24:26;;;;;;;;;57.67;48.00;;;;;;;;5058527;28;8844;-72
2024/01/30 18:26:52;;;;;;;;;66.67;51.00;;;;;;;;5051635;28;8805;-72
2024/01/30 18:29:17;;;;;;;;;56.00;46.67;;;;;;;;5051941;28;8883;-71
2024/01/30 18:31:43;;;;;;;;;59.33;49.67;;;;;;;;5059029;28;8797;-70
2024/01/30 18:34:09;;;;;;;;;64.33;48.67;;;;;;;;5054441;28;8788;-70
2024/01/30 18:36:36;;;;;;;;;59.67;47.33;;;;;;;;5057176;28;8824;-71
2024/01/30 18:39:02;;;;;;;;;58.67;47.67;;;;;;;;5051933;28;8826;-71
2024/01/30 18:41:28;;;;;;;;;62.33;50.00;;;;;;;;5057646;28;8874;-72
2024/01/30 18:43:53;;;;;;;;;61.33;48.00;;;;;;;;5054399;28;8807;-72
2024/01/30 18:46:21;;;;;;;;;58.33;47.00;;;;;;;;5057299;28;8792;-72
2024/01/30 18:48:47;;;;;;;;;60.33;49.00;;;;;;;;5055718;28;8834;-72
2024/01/30 18:51:15;;;;;;;;;59.67;49.00;;;;;;;;5059189;28;8781;-74
2024/01/30 18:53:41;;;;;;;;;58.67;47.00;;;;;;;;5054443;28;8780;-70
2024/01/30 18:56:07;;;;;;;;;59.00;49.33;;;;;;;;5048186;28;8869;-70
2024/01/30 18:58:32;;;;;;;;;64.67;51.00;;;;;;;;5039525;28;8786;-72
2024/01/30 19:00:58;;;;;;;;;62.00;48.00;;;;;;;;5040639;28;8784;-72
2024/01/30 19:03:23;;;;;;;;;59.00;47.00;;;;;;;;5045148;28;8806;-72
2024/01/30 19:05:48;;;;;;;;;56.33;45.67;;;;;;;;5040490;28;8994;-71
2024/01/30 19:08:15;;;;;;;;;60.33;47.33;;;;;;;;5039532;28;8819;-71
2024/01/30 19:10:41;;;;;;;;;30.00;23.67;;;;;;;;5045018;28;8808;-72
2024/01/30 19:13:06;;;;;;;;;61.33;49.00;;;;;;;;5039817;28;9510;-73
2024/01/30 19:15:32;;;;;;;;;60.33;47.00;;;;;;;;5043920;28;8805;-73
2024/01/30 19:17:57;;;;;;;;;59.33;48.67;;;;;;;;5044689;28;8801;-77
2024/01/30 19:20:23;;;;;;;;;56.67;47.33;;;;;;;;5040742;28;8803;-83
2024/01/30 19:22:48;;;;;;;;;57.67;47.67;;;;;;;;5043730;28;8825;-74
2024/01/30 19:25:13;;;;;;;;;57.67;48.00;;;;;;;;5040845;28;8831;-74
2024/01/30 19:27:39;;;;;;;;;54.33;44.33;;;;;;;;5039677;28;8857;-72
2024/01/30 19:30:08;;;;;;;;;59.00;47.00;;;;;;;;5043092;28;8794;-71
2024/01/30 19:32:33;;;;;;;;;58.67;48.33;;;;;;;;5039851;28;8889;-71
2024/01/30 19:34:59;;;;;;;;;62.00;52.00;;;;;;;;5036354;28;8840;-71
2024/01/30 19:37:25;;;;;;;;;65.00;52.67;;;;;;;;5036364;28;8801;-72
2024/01/30 19:39:50;;;;;;;;;59.33;48.00;;;;;;;;5044078;28;9577;-71
2024/01/30 19:42:16;;;;;;;;;62.67;50.33;;;;;;;;5039689;28;8788;-72
2024/01/30 19:44:42;;;;;;;;;61.00;50.00;;;;;;;;5042212;28;8880;-70
2024/01/30 19:47:09;;;;;;;;;61.33;49.67;;;;;;;;5037276;28;8809;-71
2024/01/30 19:49:41;;;;;;;;;58.00;48.00;;;;;;;;5039425;28;8784;-72
2024/01/30 19:52:08;;;;;;;;;57.33;48.00;;;;;;;;5042613;28;8800;-72
2024/01/30 19:54:34;;;;;;;;;57.33;48.00;;;;;;;;5048116;28;8801;-72
2024/01/30 19:57:00;;;;;;;;;54.00;45.67;;;;;;;;5036123;28;8824;-72
2024/01/30 19:59:26;;;;;;;;;61.33;48.00;;;;;;;;5031096;28;8810;-72
2024/01/30 20:01:51;;;;;;;;;56.00;47.00;;;;;;;;5035355;28;8785;-73
2024/01/30 20:04:17;;;;;;;;;61.00;48.67;;;;;;;;5043552;28;8840;-73
2024/01/30 20:06:42;;;;;;;;;57.67;47.00;;;;;;;;5042798;28;8793;-73
2024/01/30 20:09:08;;;;;;;;;60.33;48.33;;;;;;;;5042318;28;8943;-72
2024/01/30 20:11:33;;;;;;;;;56.00;47.33;;;;;;;;5043366;28;8843;-70
2024/01/30 20:13:58;;;;;;;;;57.00;47.00;;;;;;;;5043036;28;8795;-72
2024/01/30 20:16:23;;;;;;;;;64.00;49.67;;;;;;;;5039157;28;9566;-72
2024/01/30 20:18:49;;;;;;;;;57.67;48.33;;;;;;;;5037120;28;8917;-72
2024/01/30 20:21:14;;;;;;;;;61.33;50.00;;;;;;;;5038665;28;8791;-72
2024/01/30 20:23:39;;;;;;;;;58.00;49.33;;;;;;;;5043593;28;8902;-72
2024/01/30 20:26:05;;;;;;;;;59.33;48.00;;;;;;;;5040247;28;8939;-70
2024/01/30 20:28:31;;;;;;;;;56.75;43.25;;;;;;;;5038514;28;8825;-70
2024/01/30 20:30:57;;;;;;;;;37.75;31.75;;;;;;;;5039849;28;8784;-70
2024/01/30 20:33:22;;;;;;;;;43.33;39.33;;;;;;;;5041086;28;11533;-70
2024/01/30 20:35:47;;;;;;;;;50.33;42.00;;;;;;;;5042046;28;9704;-70
2024/01/30 20:38:13;;;;;;;;;46.75;41.75;;;;;;;;5032473;28;8818;-70
2024/01/30 20:40:39;;;;;;;;;47.00;42.00;;;;;;;;5040235;28;8815;-70
2024/01/30 20:43:04;;;;;;;;;45.00;38.00;;;;;;;;5042560;28;8871;-71
2024/01/30 20:45:29;;;;;;;;;39.33;38.00;;;;;;;;5042865;28;8898;-72
2024/01/30 20:47:55;;;;;;;;;48.50;43.00;;;;;;;;5034911;28;8796;-72
2024/01/30 20:50:20;;;;;;;;;43.00;41.33;;;;;;;;5040027;28;8831;-71
2024/01/30 20:52:46;;;;;;;;;42.25;39.00;;;;;;;;5041794;28;8794;-71
2024/01/30 20:55:12;;;;;;;;;47.00;40.00;;;;;;;;5035117;28;8865;-71
2024/01/30 20:57:37;;;;;;;;;44.00;40.00;;;;;;;;5025326;28;12317;-69
2024/01/30 21:00:04;;;;;;;;;47.33;41.67;;;;;;;;5028696;28;8826;-72
2024/01/30 21:02:29;;;;;;;;;42.67;38.00;;;;;;;;5029018;28;8873;-70
2024/01/30 21:04:54;;;;;;;;;50.67;43.67;;;;;;;;5029967;28;11554;-70
2024/01/30 21:07:20;;;;;;;;;45.00;42.00;;;;;;;;5025312;28;8850;-69
2024/01/30 21:09:45;;;;;;;;;47.33;44.00;;;;;;;;5029284;28;8792;-69
2024/01/30 21:12:11;;;;;;;;;51.33;46.00;;;;;;;;5030144;28;8800;-71
2024/01/30 21:14:36;;;;;;;;;48.67;41.33;;;;;;;;5029190;28;8846;-71
2024/01/30 21:17:02;;;;;;;;;43.33;42.00;;;;;;;;5030213;28;8829;-70
2024/01/30 21:19:27;;;;;;;;;47.67;38.33;;;;;;;;5028177;28;8858;-68
2024/01/30 21:21:52;;;;;;;;;48.00;38.33;;;;;;;;5028629;28;8772;-69
2024/01/30 21:24:18;;;;;;;;;47.67;42.33;;;;;;;;5028979;28;8875;-69
2024/01/30 21:26:43;;;;;;;;;46.33;40.00;;;;;;;;5030435;28;8791;-67
2024/01/30 21:29:08;;;;;;;;;35.00;28.00;;;;;;;;5029168;28;8862;-68
2024/01/30 21:31:33;;;;;;;;;50.33;44.33;;;;;;;;5030240;28;8804;-68
2024/01/30 21:33:59;;;;;;;;;48.67;42.00;;;;;;;;5030197;28;8811;-69
2024/01/30 21:36:24;;;;;;;;;39.67;37.33;;;;;;;;5032748;28;8895;-68
2024/01/30 21:38:49;;;;;;;;;50.67;44.33;;;;;;;;5036948;28;8838;-68
2024/01/30 21:41:17;;;;;;;;;51.33;45.00;;;;;;;;5037296;28;9507;-68
2024/01/30 21:43:43;;;;;;;;;54.33;44.00;;;;;;;;5036558;28;8847;-69
2024/01/30 21:46:09;;;;;;;;;54.00;44.67;;;;;;;;5030490;28;8815;-69
2024/01/30 21:48:34;;;;;;;;;52.33;44.67;;;;;;;;5026320;28;8938;-70
2024/01/30 21:50:59;;;;;;;;;51.33;45.00;;;;;;;;5030134;28;8945;-69
2024/01/30 21:53:25;;;;;;;;;47.33;43.00;;;;;;;;5030404;28;8772;-69
2024/01/30 21:55:50;;;;;;;;;55.00;45.00;;;;;;;;5030335;28;8772;-69
2024/01/30 21:58:15;;;;;;;;;47.33;42.33;;;;;;;;5030244;28;8804;-68
2024/01/30 22:00:40;;;;;;;;;54.33;45.00;;;;;;;;5030441;28;8859;-68
2024/01/30 22:03:06;;;;;;;;;59.00;47.00;;;;;;;;5028759;28;8823;-68
2024/01/30 22:05:31;;;;;;;;;54.00;47.00;;;;;;;;5030205;28;8824;-68
2024/01/30 22:07:57;;;;;;;;;59.33;48.33;;;;;;;;5029829;28;9592;-68
2024/01/30 22:10:22;;;;;;;;;52.67;44.33;;;;;;;;5029810;28;8870;-68
2024/01/30 22:12:47;;;;;;;;;52.67;46.00;;;;;;;;5033160;28;8792;-70
2024/01/30 22:15:12;;;;;;;;;54.00;46.00;;;;;;;;5030331;28;8830;-69
2024/01/30 22:17:38;;;;;;;;;57.33;47.00;;;;;;;;5030104;28;8803;-69
2024/01/30 22:20:04;;;;;;;;;51.00;45.33;;;;;;;;5042358;28;8845;-69
2024/01/30 22:22:29;;;;;;;;;53.67;44.67;;;;;;;;5031908;28;8787;-70
2024/01/30 22:24:54;;;;;;;;;50.00;45.67;;;;;;;;5030090;28;8835;-70
2024/01/30 22:27:20;;;;;;;;;51.33;42.33;;;;;;;;5030199;28;8776;-70
2024/01/30 22:29:45;;;;;;;;;46.00;39.33;;;;;;;;5027678;28;8816;-69
2024/01/30 22:32:10;;;;;;;;;66.33;51.33;;;;;;;;5032390;28;8800;-70
2024/01/30 22:34:36;;;;;;;;;51.67;42.67;;;;;;;;5032143;28;8805;-69
2024/01/30 22:37:02;;;;;;;;;51.67;45.67;;;;;;;;5033339;28;8800;-70
2024/01/30 22:39:27;;;;;;;;;66.00;49.67;;;;;;;;5033911;28;8831;-69
2024/01/30 22:41:52;;;;;;;;;55.67;44.00;;;;;;;;5033348;28;8788;-69
2024/01/30 22:44:18;;;;;;;;;51.33;45.00;;;;;;;;5033649;28;8843;-69
2024/01/30 22:46:43;;;;;;;;;60.00;47.00;;;;;;;;5033386;28;9738;-69
2024/01/30 22:49:08;;;;;;;;;50.00;46.00;;;;;;;;5033112;28;8820;-69
2024/01/30 22:51:33;;;;;;;;;60.00;45.33;;;;;;;;5043163;28;8820;-70
2024/01/30 22:53:59;;;;;;;;;50.33;45.00;;;;;;;;5030085;28;8796;-69
2024/01/30 22:56:24;;;;;;;;;60.67;46.00;;;;;;;;5031143;28;8835;-69
2024/01/30 22:58:50;;;;;;;;;57.67;46.67;;;;;;;;5033176;28;8906;-72
2024/01/30 23:01:16;;;;;;;;;51.33;45.67;;;;;;;;5032936;28;8800;-72